createdAt,value
2023-02-26T00:01:46.894Z,82.58
2023-02-26T00:04:15.106Z,82.72
2023-02-26T00:06:53.435Z,82.77
2023-02-26T00:09:24.018Z,83.58
2023-02-26T00:11:51.872Z,82.90
2023-02-26T00:14:20.582Z,81.84
2023-02-26T00:17:44.163Z,82.53
2023-02-26T00:20:13.145Z,82.87
2023-02-26T00:22:41.279Z,83.50
2023-02-26T00:25:10.453Z,82.45
2023-02-26T00:27:38.487Z,82.79
2023-02-26T00:30:09.160Z,82.31
2023-02-26T00:32:37.575Z,82.43
2023-02-26T00:35:09.380Z,81.95
2023-02-26T00:38:02.959Z,81.48
2023-02-26T00:40:48.252Z,81.04
2023-02-26T00:43:26.702Z,81.28
2023-02-26T00:46:32.721Z,81.61
2023-02-26T00:49:50.172Z,81.97
2023-02-26T00:52:25.416Z,82.64
2023-02-26T00:54:53.024Z,82.41
2023-02-26T00:57:21.376Z,82.39
2023-02-26T00:59:49.021Z,82.39
2023-02-26T01:02:16.924Z,81.96
2023-02-26T01:04:44.886Z,81.76
2023-02-26T01:07:13.689Z,82.23
2023-02-26T01:09:41.718Z,82.53
2023-02-26T01:12:13.405Z,82.39
2023-02-26T01:14:42.438Z,82.53
2023-02-26T01:17:39.804Z,82.34
2023-02-26T01:20:23.349Z,82.23
2023-02-26T01:23:03.303Z,81.01
2023-02-26T01:25:39.451Z,80.92
2023-02-26T01:28:08.008Z,80.69
2023-02-26T01:30:36.220Z,81.63
2023-02-26T01:33:29.956Z,80.50
2023-02-26T01:36:04.500Z,80.08
2023-02-26T01:38:53.075Z,80.29
2023-02-26T01:41:33.361Z,80.91
2023-02-26T01:44:15.571Z,82.34
2023-02-26T01:47:04.960Z,81.10
2023-02-26T01:49:34.817Z,80.55
2023-02-26T01:52:28.190Z,81.05
2023-02-26T01:54:56.132Z,80.61
2023-02-26T01:57:24.595Z,81.72
2023-02-26T01:59:54.187Z,80.67
2023-02-26T02:02:25.743Z,80.85
2023-02-26T02:04:54.229Z,81.02
2023-02-26T02:07:21.746Z,81.21
2023-02-26T02:09:49.585Z,81.18
2023-02-26T02:12:38.323Z,80.58
2023-02-26T02:15:22.502Z,80.61
2023-02-26T02:18:41.720Z,80.91
2023-02-26T02:21:36.435Z,81.49
2023-02-26T02:24:35.739Z,80.95
2023-02-26T02:27:36.452Z,81.70
2023-02-26T02:30:26.625Z,81.58
2023-02-26T02:33:21.159Z,81.62
2023-02-26T02:36:01.215Z,81.25
2023-02-26T02:38:54.066Z,80.58
2023-02-26T02:41:38.492Z,80.57
2023-02-26T02:44:14.353Z,81.36
2023-02-26T02:46:45.861Z,81.94
2023-02-26T02:49:45.104Z,82.04
2023-02-26T02:52:39.690Z,81.83
2023-02-26T02:55:25.104Z,81.56
2023-02-26T02:58:20.601Z,81.49
2023-02-26T03:00:54.820Z,80.88
2023-02-26T03:03:38.381Z,81.40
2023-02-26T03:06:06.597Z,82.06
2023-02-26T03:08:42.048Z,82.33
2023-02-26T03:11:11.225Z,81.89
2023-02-26T03:13:41.106Z,82.21
2023-02-26T03:17:04.292Z,82.38
2023-02-26T03:20:00.206Z,82.71
2023-02-26T03:23:03.025Z,83.15
2023-02-26T03:26:12.890Z,82.38
2023-02-26T03:29:09.792Z,82.60
2023-02-26T03:32:00.734Z,83.28
2023-02-26T03:34:51.008Z,83.41
2023-02-26T03:37:57.879Z,84.07
2023-02-26T03:41:02.432Z,84.16
2023-02-26T03:43:49.046Z,83.90
2023-02-26T03:46:27.678Z,83.80
2023-02-26T03:48:59.925Z,83.25
2023-02-26T03:51:29.109Z,82.91
2023-02-26T03:54:31.066Z,82.97
2023-02-26T03:57:19.170Z,83.02
2023-02-26T04:00:12.730Z,83.25
2023-02-26T04:03:03.649Z,83.17
2023-02-26T04:05:39.591Z,83.19
2023-02-26T04:08:07.856Z,82.89
2023-02-26T04:11:08.353Z,83.15
2023-02-26T04:13:36.665Z,83.15
2023-02-26T04:16:05.384Z,83.29
2023-02-26T04:18:33.335Z,82.95
2023-02-26T04:21:01.724Z,82.93
2023-02-26T04:23:30.051Z,82.46
2023-02-26T04:25:59.083Z,82.98
2023-02-26T04:28:27.592Z,82.95
2023-02-26T04:30:55.264Z,82.46
2023-02-26T04:33:23.414Z,82.35
2023-02-26T04:35:51.021Z,82.58
2023-02-26T04:38:19.610Z,82.14
2023-02-26T04:40:47.178Z,82.83
2023-02-26T04:43:16.202Z,82.29
2023-02-26T04:45:53.342Z,82.52
2023-02-26T04:48:21.308Z,82.44
2023-02-26T04:50:49.088Z,83.63
2023-02-26T04:53:17.009Z,84.07
2023-02-26T04:55:44.484Z,84.03
2023-02-26T04:58:12.525Z,83.96
2023-02-26T05:00:40.622Z,83.59
2023-02-26T05:03:10.095Z,83.62
2023-02-26T05:05:37.639Z,83.71
2023-02-26T05:08:05.613Z,83.31
2023-02-26T05:10:33.221Z,84.23
2023-02-26T05:13:01.073Z,83.93
2023-02-26T05:15:28.989Z,83.32
2023-02-26T05:17:56.871Z,83.28
2023-02-26T05:20:24.621Z,83.36
2023-02-26T05:22:53.542Z,83.50
2023-02-26T05:25:21.108Z,83.50
2023-02-26T05:27:49.029Z,84.30
2023-02-26T05:30:17.977Z,84.52
2023-02-26T05:32:46.310Z,85.10
2023-02-26T05:35:14.608Z,85.20
2023-02-26T05:37:42.601Z,84.92
2023-02-26T05:40:11.269Z,84.53
2023-02-26T05:42:40.385Z,84.82
2023-02-26T05:45:08.945Z,84.30
2023-02-26T05:47:37.432Z,85.32
2023-02-26T05:50:07.108Z,85.12
2023-02-26T05:52:35.556Z,85.04
2023-02-26T05:55:03.809Z,85.23
2023-02-26T05:57:31.962Z,84.82
2023-02-26T05:59:59.804Z,85.05
2023-02-26T06:02:27.780Z,85.30
2023-02-26T06:04:55.914Z,84.81
2023-02-26T06:07:24.820Z,85.23
2023-02-26T06:09:52.501Z,84.75
2023-02-26T06:12:20.397Z,84.95
2023-02-26T06:14:47.953Z,84.96
2023-02-26T06:17:15.836Z,84.44
2023-02-26T06:19:43.333Z,84.63
2023-02-26T06:22:11.335Z,85.22
2023-02-26T06:24:38.825Z,84.98
2023-02-26T06:27:06.972Z,84.69
2023-02-26T06:29:35.284Z,84.13
2023-02-26T06:32:04.058Z,83.99
2023-02-26T06:34:31.920Z,83.60
2023-02-26T06:36:59.941Z,82.64
2023-02-26T06:39:27.661Z,82.56
2023-02-26T06:41:55.451Z,82.30
2023-02-26T06:44:22.935Z,82.85
2023-02-26T06:46:51.109Z,83.40
2023-02-26T06:49:18.753Z,85.25
2023-02-26T06:51:46.532Z,84.35
2023-02-26T06:54:14.170Z,84.77
2023-02-26T06:56:42.145Z,84.73
2023-02-26T06:59:09.691Z,85.06
2023-02-26T07:01:37.862Z,85.28
2023-02-26T07:04:05.414Z,84.85
2023-02-26T07:06:33.469Z,83.64
2023-02-26T07:09:01.169Z,83.91
2023-02-26T07:11:29.159Z,83.63
2023-02-26T07:13:56.632Z,85.03
2023-02-26T07:16:25.686Z,84.65
2023-02-26T07:18:53.324Z,84.69
2023-02-26T07:21:21.947Z,85.19
2023-02-26T07:23:50.079Z,85.10
2023-02-26T07:26:17.971Z,86.01
2023-02-26T07:29:19.714Z,85.90
2023-02-26T07:31:47.817Z,85.42
2023-02-26T07:34:15.394Z,85.62
2023-02-26T07:36:43.508Z,86.78
2023-02-26T07:39:11.936Z,86.35
2023-02-26T07:41:39.770Z,86.18
2023-02-26T07:44:15.353Z,85.54
2023-02-26T07:46:43.303Z,84.04
2023-02-26T07:49:11.006Z,83.51
2023-02-26T07:51:39.487Z,84.62
2023-02-26T07:54:06.957Z,84.17
2023-02-26T07:56:34.763Z,84.05
2023-02-26T07:59:02.262Z,84.49
2023-02-26T08:01:30.157Z,84.82
2023-02-26T08:04:00.665Z,85.86
2023-02-26T08:06:30.606Z,85.10
2023-02-26T08:08:58.282Z,85.44
2023-02-26T08:11:26.162Z,86.93
2023-02-26T08:13:54.216Z,87.01
2023-02-26T08:16:22.117Z,86.86
2023-02-26T08:18:49.631Z,87.90
2023-02-26T08:21:17.483Z,87.34
2023-02-26T08:23:45.000Z,88.26
2023-02-26T08:26:14.189Z,89.17
2023-02-26T08:28:41.935Z,90.00
2023-02-26T08:31:10.024Z,90.63
2023-02-26T08:33:37.562Z,89.75
2023-02-26T08:36:06.342Z,90.95
2023-02-26T08:38:34.179Z,91.08
2023-02-26T08:41:02.225Z,91.15
2023-02-26T08:43:30.059Z,90.01
2023-02-26T08:45:59.532Z,90.77
2023-02-26T08:48:27.254Z,91.59
2023-02-26T08:50:55.216Z,90.67
2023-02-26T08:53:23.046Z,90.10
2023-02-26T08:55:52.964Z,88.60
2023-02-26T08:58:21.013Z,87.35
2023-02-26T09:00:50.145Z,87.66
2023-02-26T09:03:18.635Z,86.42
2023-02-26T09:05:46.523Z,86.70
2023-02-26T09:08:16.137Z,87.66
2023-02-26T09:10:44.088Z,88.19
2023-02-26T09:13:11.635Z,88.51
2023-02-26T09:15:39.910Z,89.50
2023-02-26T09:18:12.018Z,89.67
2023-02-26T09:20:40.234Z,89.19
2023-02-26T09:23:07.769Z,88.64
2023-02-26T09:25:35.582Z,88.88
2023-02-26T09:28:04.057Z,89.86
2023-02-26T09:30:32.962Z,89.47
2023-02-26T09:33:00.523Z,88.50
2023-02-26T09:35:28.499Z,88.76
2023-02-26T09:37:56.049Z,88.63
2023-02-26T09:40:45.168Z,89.99
2023-02-26T09:43:54.610Z,88.85
2023-02-26T09:46:39.249Z,89.79
2023-02-26T09:49:34.549Z,88.97
2023-02-26T09:52:23.635Z,88.82
2023-02-26T09:55:00.673Z,90.00
2023-02-26T09:57:30.965Z,89.40
2023-02-26T10:00:03.119Z,88.36
2023-02-26T10:03:11.553Z,89.02
2023-02-26T10:06:09.447Z,87.99
2023-02-26T10:08:58.690Z,89.57
2023-02-26T10:11:35.904Z,89.99
2023-02-26T10:14:18.743Z,90.70
2023-02-26T10:16:53.523Z,89.17
2023-02-26T10:19:32.828Z,88.99
2023-02-26T10:22:51.187Z,90.33
2023-02-26T10:25:31.614Z,90.21
2023-02-26T10:28:06.359Z,89.21
2023-02-26T10:30:51.655Z,89.70
2023-02-26T10:34:03.188Z,91.38
2023-02-26T10:37:00.983Z,90.68
2023-02-26T10:40:01.921Z,89.53
2023-02-26T10:42:46.908Z,89.91
2023-02-26T10:45:23.364Z,88.11
2023-02-26T10:48:04.720Z,88.30
2023-02-26T10:50:32.638Z,88.97
2023-02-26T10:53:00.976Z,90.94
2023-02-26T10:55:52.620Z,90.93
2023-02-26T10:58:26.028Z,89.14
2023-02-26T11:00:56.729Z,87.67
2023-02-26T11:03:28.226Z,87.99
2023-02-26T11:05:57.003Z,88.91
2023-02-26T11:08:35.522Z,89.73
2023-02-26T11:11:07.064Z,88.94
2023-02-26T11:13:39.204Z,87.68
2023-02-26T11:16:16.154Z,88.68
2023-02-26T11:18:55.007Z,88.96
2023-02-26T11:21:35.117Z,89.19
2023-02-26T11:24:17.538Z,89.34
2023-02-26T11:26:49.970Z,89.07
2023-02-26T11:29:26.248Z,89.79
2023-02-26T11:31:58.130Z,90.27
2023-02-26T11:34:27.169Z,90.75
2023-02-26T11:36:59.185Z,90.38
2023-02-26T11:39:33.329Z,90.29
2023-02-26T11:42:03.062Z,89.16
2023-02-26T11:44:40.738Z,88.30
2023-02-26T11:47:25.529Z,87.74
2023-02-26T11:50:05.739Z,88.54
2023-02-26T11:52:40.906Z,90.04
2023-02-26T11:55:33.853Z,90.30
2023-02-26T11:58:01.520Z,90.36
2023-02-26T12:00:39.733Z,90.61
2023-02-26T12:03:16.382Z,90.52
2023-02-26T12:05:44.265Z,90.53
2023-02-26T12:08:21.967Z,91.01
2023-02-26T12:11:04.189Z,91.66
2023-02-26T12:14:03.415Z,91.10
2023-02-26T12:17:10.138Z,90.38
2023-02-26T12:20:01.113Z,91.58
2023-02-26T12:22:56.413Z,91.83
2023-02-26T12:25:32.782Z,91.71
2023-02-26T12:28:38.080Z,92.42
2023-02-26T12:31:24.587Z,92.77
2023-02-26T12:34:51.078Z,91.72
2023-02-26T12:37:35.904Z,92.27
2023-02-26T12:40:31.948Z,90.78
2023-02-26T12:43:28.537Z,90.80
2023-02-26T12:46:33.767Z,91.78
2023-02-26T12:49:37.412Z,92.35
2023-02-26T12:53:03.281Z,93.23
2023-02-26T12:55:52.417Z,94.05
2023-02-26T12:58:34.771Z,95.16
2023-02-26T13:01:55.993Z,95.29
2023-02-26T13:05:26.972Z,94.87
2023-02-26T13:08:14.081Z,93.01
2023-02-26T13:10:59.328Z,93.92
2023-02-26T13:14:04.711Z,94.07
2023-02-26T13:16:53.758Z,93.22
2023-02-26T13:19:35.379Z,93.63
2023-02-26T13:22:16.257Z,93.91
2023-02-26T13:25:03.602Z,95.01
2023-02-26T13:27:38.791Z,95.31
2023-02-26T13:30:34.659Z,96.15
2023-02-26T13:33:03.259Z,97.73
2023-02-26T13:35:42.101Z,96.77
2023-02-26T13:39:05.336Z,96.06
2023-02-26T13:42:14.516Z,96.54
2023-02-26T13:45:08.048Z,95.96
2023-02-26T13:48:01.154Z,92.57
2023-02-26T13:50:53.653Z,90.46
2023-02-26T13:53:41.271Z,89.38
2023-02-26T13:56:23.227Z,89.52
2023-02-26T13:59:02.761Z,91.41
2023-02-26T14:01:57.683Z,93.26
2023-02-26T14:04:31.099Z,94.25
2023-02-26T14:07:15.056Z,94.40
2023-02-26T14:10:02.959Z,95.69
2023-02-26T14:12:42.688Z,96.51
2023-02-26T14:15:13.061Z,96.55
2023-02-26T14:18:00.898Z,96.33
2023-02-26T14:20:34.889Z,96.85
2023-02-26T14:23:10.028Z,97.09
2023-02-26T14:25:53.442Z,97.94
2023-02-26T14:28:27.878Z,98.33
2023-02-26T14:31:20.011Z,99.04
2023-02-26T14:34:36.645Z,99.79
2023-02-26T14:37:11.454Z,99.31
2023-02-26T14:39:54.783Z,98.84
2023-02-26T14:42:36.288Z,98.27
2023-02-26T14:45:37.272Z,98.38
2023-02-26T14:48:12.842Z,97.94
2023-02-26T14:51:17.042Z,99.16
2023-02-26T14:54:59.888Z,99.51
2023-02-26T14:57:51.572Z,100.00
2023-02-26T15:00:58.767Z,99.81
2023-02-26T15:03:35.215Z,100.00
2023-02-26T15:06:51.514Z,100.00
2023-02-26T15:09:46.812Z,99.66
2023-02-26T15:12:38.428Z,99.19
2023-02-26T15:15:39.604Z,98.82
2023-02-26T15:18:40.389Z,98.99
2023-02-26T15:21:37.824Z,98.90
2023-02-26T15:24:11.008Z,98.24
2023-02-26T15:26:49.455Z,98.34
2023-02-26T15:29:17.646Z,97.96
2023-02-26T15:32:05.790Z,98.36
2023-02-26T15:34:34.170Z,97.87
2023-02-26T15:37:02.703Z,97.46
2023-02-26T15:39:30.131Z,97.99
2023-02-26T15:41:58.021Z,97.23
2023-02-26T15:44:33.164Z,96.61
2023-02-26T15:47:04.874Z,96.46
2023-02-26T15:49:40.275Z,96.04
2023-02-26T15:52:18.838Z,96.37
2023-02-26T15:55:00.651Z,95.66
2023-02-26T15:57:29.841Z,96.78
2023-02-26T16:00:26.765Z,96.82
2023-02-26T16:02:59.992Z,96.81
2023-02-26T16:05:29.317Z,96.55
2023-02-26T16:07:57.289Z,96.81
2023-02-26T16:10:40.816Z,96.73
2023-02-26T16:13:27.937Z,96.39
2023-02-26T16:16:01.622Z,96.21
2023-02-26T16:18:32.954Z,96.73
2023-02-26T16:21:06.924Z,96.50
2023-02-26T16:23:51.006Z,95.95
2023-02-26T16:26:37.700Z,95.75
2023-02-26T16:29:26.251Z,96.27
2023-02-26T16:32:01.169Z,97.46
2023-02-26T16:34:37.457Z,98.18
2023-02-26T16:37:29.254Z,99.38
2023-02-26T16:40:20.387Z,99.17
2023-02-26T16:42:50.952Z,99.26
2023-02-26T16:45:20.012Z,98.74
2023-02-26T16:47:53.731Z,98.22
2023-02-26T16:50:27.333Z,98.71
2023-02-26T16:53:19.289Z,98.78
2023-02-26T16:55:56.021Z,99.00
2023-02-26T16:58:24.881Z,99.38
2023-02-26T17:01:12.668Z,98.79
2023-02-26T17:03:44.123Z,98.68
2023-02-26T17:06:16.656Z,100.00
2023-02-26T17:09:02.819Z,100.00
2023-02-26T17:11:39.982Z,100.00
2023-02-26T17:14:25.712Z,100.00
2023-02-26T17:16:53.711Z,100.00
2023-02-26T17:19:22.306Z,99.57
2023-02-26T17:21:55.091Z,99.51
2023-02-26T17:24:31.742Z,98.16
2023-02-26T17:27:02.381Z,99.04
2023-02-26T17:29:41.005Z,98.96
2023-02-26T17:32:23.514Z,99.19
2023-02-26T17:34:51.876Z,99.60
2023-02-26T17:37:21.444Z,99.50
2023-02-26T17:39:48.976Z,99.89
2023-02-26T17:42:21.506Z,99.99
2023-02-26T17:44:50.392Z,99.54
2023-02-26T17:47:25.790Z,99.91
2023-02-26T17:49:54.365Z,100.00
2023-02-26T17:52:22.191Z,100.00
2023-02-26T17:54:49.593Z,99.84
2023-02-26T17:57:21.732Z,96.45
2023-02-26T17:59:49.511Z,96.98
2023-02-26T18:02:23.651Z,97.19
2023-02-26T18:04:52.023Z,97.65
2023-02-26T18:07:20.502Z,97.45
2023-02-26T18:09:49.089Z,97.86
2023-02-26T18:12:21.257Z,98.29
2023-02-26T18:14:49.842Z,98.36
2023-02-26T18:17:26.570Z,98.15
2023-02-26T18:19:55.121Z,98.53
2023-02-26T18:22:25.482Z,98.00
2023-02-26T18:24:56.188Z,97.72
2023-02-26T18:27:29.589Z,97.62
2023-02-26T18:29:59.294Z,96.20
2023-02-26T18:32:28.027Z,96.55
2023-02-26T18:34:55.604Z,96.77
2023-02-26T18:37:27.295Z,96.67
2023-02-26T18:39:55.930Z,96.36
2023-02-26T18:42:27.806Z,96.21
2023-02-26T18:44:55.680Z,95.92
2023-02-26T18:47:24.285Z,96.28
2023-02-26T18:49:52.800Z,95.57
2023-02-26T18:52:20.567Z,95.45
2023-02-26T18:54:48.115Z,95.02
2023-02-26T18:57:17.377Z,95.11
2023-02-26T18:59:45.143Z,94.68
2023-02-26T19:02:14.142Z,94.50
2023-02-26T19:04:42.489Z,93.73
2023-02-26T19:07:10.537Z,93.93
2023-02-26T19:09:38.781Z,95.13
2023-02-26T19:12:09.357Z,96.55
2023-02-26T19:14:38.544Z,96.62
2023-02-26T19:17:06.358Z,97.63
2023-02-26T19:19:33.916Z,97.47
2023-02-26T19:22:02.122Z,97.38
2023-02-26T19:24:29.688Z,96.64
2023-02-26T19:26:57.442Z,96.40
2023-02-26T19:29:24.975Z,95.32
2023-02-26T19:31:52.933Z,95.12
2023-02-26T19:34:20.515Z,94.58
2023-02-26T19:36:49.294Z,94.26
2023-02-26T19:39:21.422Z,94.53
2023-02-26T19:41:50.806Z,93.85
2023-02-26T19:44:20.391Z,93.96
2023-02-26T19:46:49.500Z,94.06
2023-02-26T19:49:17.528Z,94.50
2023-02-26T19:51:46.036Z,94.16
2023-02-26T19:54:14.270Z,93.36
2023-02-26T19:56:43.255Z,92.46
2023-02-26T19:59:13.309Z,93.42
2023-02-26T20:01:42.547Z,94.53
2023-02-26T20:04:10.862Z,93.38
2023-02-26T20:06:38.801Z,93.35
2023-02-26T20:09:07.557Z,93.41
2023-02-26T20:11:35.633Z,94.09
2023-02-26T20:14:03.190Z,94.79
2023-02-26T20:16:31.710Z,95.38
2023-02-26T20:19:00.122Z,94.55
2023-02-26T20:21:28.676Z,94.45
2023-02-26T20:23:57.708Z,94.39
2023-02-26T20:26:25.819Z,94.16
2023-02-26T20:28:53.688Z,94.80
2023-02-26T20:31:21.799Z,94.40
2023-02-26T20:33:49.974Z,94.86
2023-02-26T20:36:18.415Z,95.30
2023-02-26T20:38:46.172Z,95.39
2023-02-26T20:41:14.127Z,93.92
2023-02-26T20:43:41.596Z,92.48
2023-02-26T20:46:09.442Z,92.37
2023-02-26T20:48:41.712Z,93.66
2023-02-26T20:51:12.082Z,94.38
2023-02-26T20:53:40.371Z,94.65
2023-02-26T20:56:09.818Z,95.93
2023-02-26T20:58:39.553Z,95.62
2023-02-26T21:01:07.375Z,95.61
2023-02-26T21:03:34.920Z,95.37
2023-02-26T21:06:02.668Z,94.53
2023-02-26T21:08:30.192Z,94.89
2023-02-26T21:10:57.955Z,94.23
2023-02-26T21:13:25.863Z,93.78
2023-02-26T21:15:53.941Z,93.97
2023-02-26T21:18:21.448Z,95.09
2023-02-26T21:20:50.782Z,94.32
2023-02-26T21:23:18.898Z,93.45
2023-02-26T21:25:47.001Z,93.65
2023-02-26T21:28:14.450Z,93.56
2023-02-26T21:30:42.659Z,93.54
2023-02-26T21:33:10.200Z,92.82
2023-02-26T21:35:38.057Z,92.25
2023-02-26T21:38:05.473Z,93.01
2023-02-26T21:40:33.298Z,93.20
2023-02-26T21:43:00.751Z,93.14
2023-02-26T21:45:28.548Z,92.78
2023-02-26T21:47:56.452Z,93.11
2023-02-26T21:50:24.548Z,92.64
2023-02-26T21:53:03.033Z,92.90
2023-02-26T21:55:56.452Z,93.61
2023-02-26T21:58:55.494Z,93.72
2023-02-26T22:01:37.504Z,93.37
2023-02-26T22:04:05.283Z,92.73
2023-02-26T22:06:33.557Z,92.80
2023-02-26T22:09:01.489Z,91.95
2023-02-26T22:11:29.704Z,91.94
2023-02-26T22:13:57.867Z,93.21
2023-02-26T22:16:25.960Z,94.01
2023-02-26T22:18:54.613Z,94.01
2023-02-26T22:21:24.284Z,93.12
2023-02-26T22:23:51.907Z,92.76
2023-02-26T22:26:19.794Z,91.88
2023-02-26T22:28:47.409Z,91.79
2023-02-26T22:31:15.962Z,91.81
2023-02-26T22:33:43.636Z,93.02
2023-02-26T22:36:12.684Z,93.68
2023-02-26T22:38:40.677Z,94.25
2023-02-26T22:41:08.721Z,93.56
2023-02-26T22:43:36.538Z,92.79
2023-02-26T22:46:04.936Z,92.38
2023-02-26T22:48:32.368Z,93.37
2023-02-26T22:51:00.382Z,94.14
2023-02-26T22:53:28.312Z,94.26
2023-02-26T22:55:56.125Z,95.05
2023-02-26T22:58:49.033Z,95.32
2023-02-26T23:01:17.989Z,95.29
2023-02-26T23:03:45.848Z,95.75
2023-02-26T23:06:14.470Z,94.70
2023-02-26T23:08:42.387Z,95.83
2023-02-26T23:11:10.291Z,96.08
2023-02-26T23:13:38.210Z,95.74
2023-02-26T23:16:09.686Z,95.57
2023-02-26T23:18:38.117Z,96.03
2023-02-26T23:21:08.137Z,95.84
2023-02-26T23:23:35.905Z,95.52
2023-02-26T23:26:04.144Z,95.34
2023-02-26T23:28:31.962Z,96.22
2023-02-26T23:30:59.942Z,97.14
2023-02-26T23:33:27.579Z,97.46
2023-02-26T23:35:55.410Z,97.08
2023-02-26T23:38:23.303Z,96.33
2023-02-26T23:40:51.141Z,96.43
2023-02-26T23:43:18.647Z,96.41
2023-02-26T23:45:46.366Z,96.35
2023-02-26T23:48:13.904Z,94.88
2023-02-26T23:50:42.057Z,96.17
2023-02-26T23:53:09.847Z,96.04
2023-02-26T23:55:37.634Z,96.71
2023-02-26T23:58:05.122Z,98.14
